createdAt,value
2022-09-12T00:00:04.051Z,98041.00
2022-09-12T00:00:14.067Z,98042.00
2022-09-12T00:00:24.181Z,98046.00
2022-09-12T00:00:34.428Z,98044.00
2022-09-12T00:00:44.542Z,98044.00
2022-09-12T00:00:54.718Z,98042.00
2022-09-12T00:01:04.910Z,98044.00
2022-09-12T00:01:14.942Z,98044.00
2022-09-12T00:01:24.991Z,98044.00
2022-09-12T00:01:35.059Z,98044.00
2022-09-12T00:01:45.118Z,98041.00
2022-09-12T00:01:55.189Z,98041.00
2022-09-12T00:02:05.282Z,98042.00
2022-09-12T00:02:15.332Z,98042.00
2022-09-12T00:02:25.414Z,98041.00
2022-09-12T00:02:35.391Z,98044.00
2022-09-12T00:02:45.638Z,98042.00
2022-09-12T00:02:55.752Z,98042.00
2022-09-12T00:03:05.866Z,98042.00
2022-09-12T00:03:15.990Z,98044.00
2022-09-12T00:03:25.985Z,98041.00
2022-09-12T00:03:36.109Z,98042.00
2022-09-12T00:03:46.355Z,98042.00
2022-09-12T00:03:56.472Z,98041.00
2022-09-12T00:04:06.591Z,98042.00
2022-09-12T00:04:16.715Z,98037.00
2022-09-12T00:04:26.852Z,98041.00
2022-09-12T00:04:36.958Z,98039.00
2022-09-12T00:04:47.079Z,98042.00
2022-09-12T00:04:57.195Z,98039.00
2022-09-12T00:05:07.313Z,98041.00
2022-09-12T00:05:17.434Z,98041.00
2022-09-12T00:05:27.551Z,98041.00
2022-09-12T00:05:37.710Z,98039.00
2022-09-12T00:05:47.850Z,98041.00
2022-09-12T00:05:57.969Z,98039.00
2022-09-12T00:06:07.966Z,98041.00
2022-09-12T00:06:22.565Z,98039.00
2022-09-12T00:06:28.338Z,98039.00
2022-09-12T00:06:38.457Z,98035.00
2022-09-12T00:06:48.579Z,98039.00
2022-09-12T00:06:58.694Z,98037.00
2022-09-12T00:07:08.690Z,98037.00
2022-09-12T00:07:18.810Z,98037.00
2022-09-12T00:07:28.924Z,98037.00
2022-09-12T00:07:39.041Z,98035.00
2022-09-12T00:07:49.161Z,98035.00
2022-09-12T00:07:59.277Z,98037.00
2022-09-12T00:08:09.273Z,98037.00
2022-09-12T00:08:19.410Z,98035.00
2022-09-12T00:08:29.401Z,98035.00
2022-09-12T00:08:39.526Z,98037.00
2022-09-12T00:08:49.528Z,98035.00
2022-09-12T00:08:59.644Z,98035.00
2022-09-12T00:09:09.638Z,98035.00
2022-09-12T00:09:19.884Z,98035.00
2022-09-12T00:09:30.000Z,98033.00
2022-09-12T00:09:40.119Z,98035.00
2022-09-12T00:09:50.242Z,98033.00
2022-09-12T00:10:00.356Z,98035.00
2022-09-12T00:10:10.357Z,98039.00
2022-09-12T00:10:20.602Z,98039.00
2022-09-12T00:10:30.721Z,98039.00
2022-09-12T00:10:40.843Z,98039.00
2022-09-12T00:10:50.966Z,98033.00
2022-09-12T00:11:01.087Z,98039.00
2022-09-12T00:11:11.195Z,98033.00
2022-09-12T00:11:21.317Z,98031.00
2022-09-12T00:11:31.316Z,98033.00
2022-09-12T00:11:41.433Z,98035.00
2022-09-12T00:11:51.692Z,98035.00
2022-09-12T00:12:01.826Z,98035.00
2022-09-12T00:12:11.819Z,98035.00
2022-09-12T00:12:22.129Z,98035.00
2022-09-12T00:12:32.243Z,98035.00
2022-09-12T00:12:42.366Z,98033.00
2022-09-12T00:12:52.491Z,98033.00
2022-09-12T00:13:02.490Z,98033.00
2022-09-12T00:13:12.606Z,98033.00
2022-09-12T00:13:22.855Z,98035.00
2022-09-12T00:13:32.969Z,98029.00
2022-09-12T00:13:43.092Z,98033.00
2022-09-12T00:13:53.215Z,98033.00
2022-09-12T00:14:03.340Z,98033.00
2022-09-12T00:14:13.367Z,98033.00
2022-09-12T00:14:23.585Z,98033.00
2022-09-12T00:14:33.705Z,98029.00
2022-09-12T00:14:43.822Z,98033.00
2022-09-12T00:14:53.949Z,98031.00
2022-09-12T00:15:03.938Z,98029.00
2022-09-12T00:15:14.055Z,98031.00
2022-09-12T00:15:24.318Z,98029.00
2022-09-12T00:15:34.311Z,98027.00
2022-09-12T00:15:44.434Z,98029.00
2022-09-12T00:15:54.688Z,98029.00
2022-09-12T00:16:04.865Z,98029.00
2022-09-12T00:16:14.906Z,98029.00
2022-09-12T00:16:25.159Z,98029.00
2022-09-12T00:16:35.306Z,98027.00
2022-09-12T00:16:45.462Z,98029.00
2022-09-12T00:16:55.657Z,98029.00
2022-09-12T00:17:05.646Z,98029.00
2022-09-12T00:17:15.642Z,98027.00
2022-09-12T00:17:26.028Z,98027.00
2022-09-12T00:17:36.026Z,98029.00
2022-09-12T00:17:46.154Z,98029.00
2022-09-12T00:17:56.403Z,98027.00
2022-09-12T00:18:06.525Z,98029.00
2022-09-12T00:18:16.721Z,98031.00
2022-09-12T00:18:26.844Z,98031.00
2022-09-12T00:18:36.958Z,98029.00
2022-09-12T00:18:47.293Z,98029.00
2022-09-12T00:18:57.300Z,98031.00
2022-09-12T00:19:07.417Z,98029.00
2022-09-12T00:19:17.531Z,98031.00
2022-09-12T00:19:27.669Z,98031.00
2022-09-12T00:19:37.684Z,98031.00
2022-09-12T00:19:47.785Z,98031.00
2022-09-12T00:19:58.027Z,98031.00
2022-09-12T00:20:08.146Z,98031.00
2022-09-12T00:20:18.152Z,98029.00
2022-09-12T00:20:28.408Z,98031.00
2022-09-12T00:20:38.410Z,98033.00
2022-09-12T00:20:48.527Z,98031.00
2022-09-12T00:20:58.774Z,98031.00
2022-09-12T00:21:08.897Z,98031.00
2022-09-12T00:21:19.005Z,98031.00
2022-09-12T00:21:29.139Z,98029.00
2022-09-12T00:21:39.129Z,98031.00
2022-09-12T00:21:49.242Z,98031.00
2022-09-12T00:21:59.489Z,98027.00
2022-09-12T00:22:09.618Z,98033.00
2022-09-12T00:22:19.613Z,98031.00
2022-09-12T00:22:29.861Z,98033.00
2022-09-12T00:22:39.976Z,98029.00
2022-09-12T00:22:50.095Z,98029.00
2022-09-12T00:23:00.216Z,98033.00
2022-09-12T00:23:10.338Z,98029.00
2022-09-12T00:23:20.339Z,98031.00
2022-09-12T00:23:30.592Z,98029.00
2022-09-12T00:23:40.710Z,98029.00
2022-09-12T00:23:50.827Z,98029.00
2022-09-12T00:24:00.951Z,98029.00
2022-09-12T00:24:11.068Z,98031.00
2022-09-12T00:24:21.185Z,98031.00
2022-09-12T00:24:31.310Z,98029.00
2022-09-12T00:24:41.426Z,98031.00
2022-09-12T00:24:51.545Z,98033.00
2022-09-12T00:25:01.675Z,98033.00
2022-09-12T00:25:11.799Z,98031.00
2022-09-12T00:25:21.915Z,98031.00
2022-09-12T00:25:32.036Z,98033.00
2022-09-12T00:25:42.155Z,98031.00
2022-09-12T00:25:52.290Z,98031.00
2022-09-12T00:26:02.410Z,98033.00
2022-09-12T00:26:12.525Z,98031.00
2022-09-12T00:26:22.641Z,98031.00
2022-09-12T00:26:32.763Z,98031.00
2022-09-12T00:26:42.889Z,98031.00
2022-09-12T00:26:52.878Z,98033.00
2022-09-12T00:27:03.149Z,98031.00
2022-09-12T00:27:13.146Z,98029.00
2022-09-12T00:27:23.147Z,98031.00
2022-09-12T00:27:33.523Z,98027.00
2022-09-12T00:27:43.639Z,98031.00
2022-09-12T00:27:53.751Z,98031.00
2022-09-12T00:28:03.876Z,98029.00
2022-09-12T00:28:14.002Z,98029.00
2022-09-12T00:28:23.995Z,98029.00
2022-09-12T00:28:34.246Z,98031.00
2022-09-12T00:28:44.309Z,98027.00
2022-09-12T00:28:54.285Z,98031.00
2022-09-12T00:29:04.657Z,98027.00
2022-09-12T00:29:14.774Z,98031.00
2022-09-12T00:29:24.801Z,98025.00
2022-09-12T00:29:35.036Z,98027.00
2022-09-12T00:29:45.157Z,98025.00
2022-09-12T00:29:55.283Z,98029.00
2022-09-12T00:30:05.418Z,98027.00
2022-09-12T00:30:15.533Z,98029.00
2022-09-12T00:30:25.531Z,98029.00
2022-09-12T00:30:35.783Z,98025.00
2022-09-12T00:30:45.780Z,98025.00
2022-09-12T00:30:55.905Z,98025.00
2022-09-12T00:31:06.156Z,98027.00
2022-09-12T00:31:16.373Z,98025.00
2022-09-12T00:31:26.490Z,98025.00
2022-09-12T00:31:36.567Z,98029.00
2022-09-12T00:31:46.658Z,98027.00
2022-09-12T00:31:56.688Z,98025.00
2022-09-12T00:32:06.702Z,98027.00
2022-09-12T00:32:16.824Z,98029.00
2022-09-12T00:32:26.825Z,98027.00
2022-09-12T00:32:36.986Z,98027.00
2022-09-12T00:32:47.041Z,98027.00
2022-09-12T00:32:57.072Z,98027.00
2022-09-12T00:33:07.059Z,98027.00
2022-09-12T00:33:17.288Z,98027.00
2022-09-12T00:33:27.268Z,98029.00
2022-09-12T00:33:37.388Z,98027.00
2022-09-12T00:33:47.644Z,98027.00
2022-09-12T00:33:57.790Z,98029.00
2022-09-12T00:34:07.758Z,98027.00
2022-09-12T00:34:18.010Z,98027.00
2022-09-12T00:34:28.009Z,98029.00
2022-09-12T00:34:38.142Z,98027.00
2022-09-12T00:34:48.371Z,98031.00
2022-09-12T00:34:58.523Z,98029.00
2022-09-12T00:35:08.528Z,98029.00
2022-09-12T00:35:18.776Z,98025.00
2022-09-12T00:35:28.773Z,98025.00
2022-09-12T00:35:38.891Z,98027.00
2022-09-12T00:35:49.138Z,98023.00
2022-09-12T00:35:59.254Z,98023.00
2022-09-12T00:36:09.373Z,98023.00
2022-09-12T00:36:19.497Z,98023.00
2022-09-12T00:36:29.611Z,98023.00
2022-09-12T00:36:39.731Z,98025.00
2022-09-12T00:36:49.856Z,98023.00
2022-09-12T00:36:59.974Z,98025.00
2022-09-12T00:37:10.088Z,98021.00
2022-09-12T00:37:20.213Z,98023.00
2022-09-12T00:37:30.330Z,98021.00
2022-09-12T00:37:40.445Z,98025.00
2022-09-12T00:37:50.565Z,98021.00
2022-09-12T00:38:00.684Z,98021.00
2022-09-12T00:38:10.798Z,98019.00
2022-09-12T00:38:20.925Z,98021.00
2022-09-12T00:38:30.919Z,98019.00
2022-09-12T00:38:41.134Z,98019.00
2022-09-12T00:38:51.386Z,98019.00
2022-09-12T00:39:01.507Z,98019.00
2022-09-12T00:39:11.629Z,98019.00
2022-09-12T00:39:21.764Z,98019.00
2022-09-12T00:39:31.756Z,98019.00
2022-09-12T00:39:41.945Z,98017.00
2022-09-12T00:39:52.259Z,98019.00
2022-09-12T00:40:02.286Z,98019.00
2022-09-12T00:40:12.336Z,98021.00
2022-09-12T00:40:22.340Z,98019.00
2022-09-12T00:40:32.465Z,98019.00
2022-09-12T00:40:42.461Z,98019.00
2022-09-12T00:40:52.582Z,98019.00
2022-09-12T00:41:02.581Z,98021.00
2022-09-12T00:41:12.700Z,98019.00
2022-09-12T00:41:22.816Z,98021.00
2022-09-12T00:41:32.941Z,98019.00
2022-09-12T00:41:42.936Z,98019.00
2022-09-12T00:41:53.060Z,98019.00
2022-09-12T00:42:03.054Z,98017.00
2022-09-12T00:42:13.185Z,98021.00
2022-09-12T00:42:23.180Z,98019.00
2022-09-12T00:42:33.429Z,98017.00
2022-09-12T00:42:43.428Z,98021.00
2022-09-12T00:42:53.554Z,98019.00
2022-09-12T00:43:03.803Z,98017.00
2022-09-12T00:43:13.931Z,98021.00
2022-09-12T00:43:23.921Z,98021.00
2022-09-12T00:43:34.175Z,98021.00
2022-09-12T00:43:44.173Z,98017.00
2022-09-12T00:43:54.174Z,98019.00
2022-09-12T00:44:04.564Z,98021.00
2022-09-12T00:44:14.569Z,98017.00
2022-09-12T00:44:24.689Z,98015.00
2022-09-12T00:44:34.964Z,98015.00
2022-09-12T00:44:45.057Z,98015.00
2022-09-12T00:44:55.180Z,98017.00
2022-09-12T00:45:05.293Z,98017.00
2022-09-12T00:45:15.416Z,98019.00
2022-09-12T00:45:25.490Z,98017.00
2022-09-12T00:45:35.711Z,98017.00
2022-09-12T00:45:45.763Z,98015.00
2022-09-12T00:45:55.783Z,98017.00
2022-09-12T00:46:05.843Z,98017.00
2022-09-12T00:46:15.897Z,98015.00
2022-09-12T00:46:26.006Z,98017.00
2022-09-12T00:46:36.123Z,98017.00
2022-09-12T00:46:46.248Z,98017.00
2022-09-12T00:46:56.376Z,98019.00
2022-09-12T00:47:06.371Z,98017.00
2022-09-12T00:47:16.502Z,98019.00
2022-09-12T00:47:26.501Z,98019.00
2022-09-12T00:47:36.614Z,98017.00
2022-09-12T00:47:46.737Z,98019.00
2022-09-12T00:47:56.858Z,98017.00
2022-09-12T00:48:06.856Z,98015.00
2022-09-12T00:48:16.979Z,98017.00
2022-09-12T00:48:27.037Z,98017.00
2022-09-12T00:48:37.027Z,98017.00
2022-09-12T00:48:47.183Z,98017.00
2022-09-12T00:48:57.061Z,98017.00
2022-09-12T00:49:07.191Z,98017.00
2022-09-12T00:49:17.189Z,98017.00
2022-09-12T00:49:27.193Z,98017.00
2022-09-12T00:49:37.319Z,98017.00
2022-09-12T00:49:47.440Z,98017.00
2022-09-12T00:49:57.565Z,98017.00
2022-09-12T00:50:07.570Z,98017.00
2022-09-12T00:50:17.686Z,98017.00
2022-09-12T00:50:27.932Z,98015.00
2022-09-12T00:50:38.049Z,98017.00
2022-09-12T00:50:48.168Z,98017.00
2022-09-12T00:50:58.298Z,98015.00
2022-09-12T00:51:08.414Z,98017.00
2022-09-12T00:51:18.531Z,98015.00
2022-09-12T00:51:28.661Z,98015.00
2022-09-12T00:51:38.779Z,98017.00
2022-09-12T00:51:48.895Z,98017.00
2022-09-12T00:51:59.029Z,98015.00
2022-09-12T00:52:09.150Z,98015.00
2022-09-12T00:52:19.267Z,98015.00
2022-09-12T00:52:29.388Z,98017.00
2022-09-12T00:52:39.510Z,98017.00
2022-09-12T00:52:49.511Z,98017.00
2022-09-12T00:52:59.762Z,98017.00
2022-09-12T00:53:09.781Z,98019.00
2022-09-12T00:53:19.761Z,98017.00
2022-09-12T00:53:30.134Z,98021.00
2022-09-12T00:53:40.261Z,98017.00
2022-09-12T00:53:50.265Z,98017.00
2022-09-12T00:54:00.519Z,98017.00
2022-09-12T00:54:10.629Z,98017.00
2022-09-12T00:54:20.754Z,98017.00
2022-09-12T00:54:30.878Z,98019.00
2022-09-12T00:54:40.990Z,98019.00
2022-09-12T00:54:51.106Z,98017.00
2022-09-12T00:55:01.231Z,98019.00
2022-09-12T00:55:11.232Z,98017.00
2022-09-12T00:55:21.372Z,98017.00
2022-09-12T00:55:31.665Z,98017.00
2022-09-12T00:55:41.659Z,98015.00
2022-09-12T00:55:51.790Z,98019.00
2022-09-12T00:56:02.043Z,98015.00
2022-09-12T00:56:12.160Z,98017.00
2022-09-12T00:56:22.282Z,98017.00
2022-09-12T00:56:32.404Z,98015.00
2022-09-12T00:56:42.531Z,98015.00
2022-09-12T00:56:52.524Z,98015.00
2022-09-12T00:57:02.770Z,98015.00
2022-09-12T00:57:12.888Z,98013.00
2022-09-12T00:57:23.009Z,98013.00
2022-09-12T00:57:33.149Z,98013.00
2022-09-12T00:57:43.137Z,98013.00
2022-09-12T00:57:53.133Z,98015.00
2022-09-12T00:58:03.509Z,98015.00
2022-09-12T00:58:13.627Z,98015.00
2022-09-12T00:58:23.753Z,98013.00
2022-09-12T00:58:33.888Z,98013.00
2022-09-12T00:58:44.105Z,98015.00
2022-09-12T00:58:54.155Z,98013.00
2022-09-12T00:59:04.264Z,98015.00
2022-09-12T00:59:14.267Z,98013.00
2022-09-12T00:59:24.378Z,98013.00
2022-09-12T00:59:34.631Z,98011.00
2022-09-12T00:59:44.771Z,98009.00
2022-09-12T00:59:54.869Z,98011.00
2022-09-12T01:00:05.002Z,98009.00
2022-09-12T01:00:15.120Z,98009.00
2022-09-12T01:00:25.118Z,98009.00
2022-09-12T01:00:35.367Z,98009.00
2022-09-12T01:00:45.564Z,98011.00
2022-09-12T01:00:55.673Z,98011.00
2022-09-12T01:01:05.919Z,98009.00
2022-09-12T01:01:15.954Z,98011.00
2022-09-12T01:01:29.235Z,98009.00
2022-09-12T01:01:36.095Z,98011.00
2022-09-12T01:01:46.104Z,98011.00
2022-09-12T01:01:56.267Z,98009.00
2022-09-12T01:02:06.214Z,98009.00
2022-09-12T01:02:16.373Z,98009.00
2022-09-12T01:02:26.299Z,98011.00
2022-09-12T01:02:36.304Z,98009.00
2022-09-12T01:02:46.419Z,98011.00
2022-09-12T01:02:56.661Z,98009.00
2022-09-12T01:03:06.784Z,98007.00
2022-09-12T01:03:16.925Z,98007.00
2022-09-12T01:03:27.032Z,98007.00
2022-09-12T01:03:37.154Z,98007.00
2022-09-12T01:03:47.268Z,98007.00
2022-09-12T01:03:57.415Z,98007.00
2022-09-12T01:04:07.412Z,98009.00
2022-09-12T01:04:17.527Z,98007.00
2022-09-12T01:04:27.783Z,98007.00
2022-09-12T01:04:37.775Z,98009.00
2022-09-12T01:04:47.897Z,98009.00
2022-09-12T01:04:58.140Z,98009.00
2022-09-12T01:05:08.254Z,98009.00
2022-09-12T01:05:18.371Z,98009.00
2022-09-12T01:05:28.492Z,98009.00
2022-09-12T01:05:38.617Z,98009.00
2022-09-12T01:05:48.728Z,98011.00
2022-09-12T01:05:58.845Z,98009.00
2022-09-12T01:06:08.972Z,98009.00
2022-09-12T01:06:19.090Z,98013.00
2022-09-12T01:06:29.210Z,98009.00
2022-09-12T01:06:39.328Z,98011.00
2022-09-12T01:06:49.445Z,98011.00
2022-09-12T01:06:59.573Z,98011.00
2022-09-12T01:07:09.694Z,98011.00
2022-09-12T01:07:19.695Z,98011.00
2022-09-12T01:07:29.942Z,98009.00
2022-09-12T01:07:40.438Z,98013.00
2022-09-12T01:07:50.175Z,98013.00
2022-09-12T01:08:00.306Z,98011.00
2022-09-12T01:08:10.422Z,98011.00
2022-09-12T01:08:20.538Z,98011.00
2022-09-12T01:08:30.659Z,98011.00
2022-09-12T01:08:40.778Z,98009.00
2022-09-12T01:08:50.898Z,98009.00
2022-09-12T01:09:01.023Z,98011.00
2022-09-12T01:09:11.146Z,98009.00
2022-09-12T01:09:21.262Z,98009.00
2022-09-12T01:09:31.385Z,98011.00
2022-09-12T01:09:41.499Z,98009.00
2022-09-12T01:09:51.620Z,98007.00
2022-09-12T01:10:01.736Z,98007.00
2022-09-12T01:10:11.854Z,98007.00
2022-09-12T01:10:21.970Z,98007.00
2022-09-12T01:10:32.097Z,98007.00
2022-09-12T01:10:42.094Z,98007.00
2022-09-12T01:10:52.098Z,98007.00
2022-09-12T01:11:02.104Z,98007.00
2022-09-12T01:11:12.227Z,98007.00
2022-09-12T01:11:22.342Z,98009.00
2022-09-12T01:11:32.461Z,98007.00
2022-09-12T01:11:42.579Z,98007.00
2022-09-12T01:11:52.713Z,98007.00
2022-09-12T01:12:02.711Z,98005.00
2022-09-12T01:12:12.832Z,98007.00
2022-09-12T01:12:22.948Z,98007.00
2022-09-12T01:12:33.063Z,98007.00
2022-09-12T01:12:43.195Z,98005.00
2022-09-12T01:12:53.190Z,98005.00
2022-09-12T01:13:03.186Z,98007.00
2022-09-12T01:13:13.307Z,98005.00
2022-09-12T01:13:23.422Z,98003.00
2022-09-12T01:13:33.539Z,98003.00
2022-09-12T01:13:43.657Z,98005.00
2022-09-12T01:13:53.775Z,98005.00
2022-09-12T01:14:03.990Z,98005.00
2022-09-12T01:14:13.988Z,98005.00
2022-09-12T01:14:24.104Z,98005.00
2022-09-12T01:14:34.221Z,98005.00
2022-09-12T01:14:44.343Z,98003.00
2022-09-12T01:14:54.484Z,98005.00
2022-09-12T01:15:04.577Z,98005.00
2022-09-12T01:15:14.707Z,98005.00
2022-09-12T01:15:24.702Z,98003.00
2022-09-12T01:15:34.828Z,98005.00
2022-09-12T01:15:45.075Z,98007.00
2022-09-12T01:15:55.196Z,98003.00
2022-09-12T01:16:05.355Z,98005.00
2022-09-12T01:16:15.528Z,98003.00
2022-09-12T01:16:25.578Z,98001.00
2022-09-12T01:16:35.593Z,98003.00
2022-09-12T01:16:45.665Z,98003.00
2022-09-12T01:16:55.691Z,98001.00
2022-09-12T01:17:05.806Z,98001.00
2022-09-12T01:17:15.938Z,98001.00
2022-09-12T01:17:25.991Z,98001.00
2022-09-12T01:17:36.108Z,98001.00
2022-09-12T01:17:46.224Z,98001.00
2022-09-12T01:17:56.356Z,98001.00
2022-09-12T01:18:06.356Z,97999.00
2022-09-12T01:18:16.349Z,98001.00
2022-09-12T01:18:26.476Z,98001.00
2022-09-12T01:18:36.597Z,98001.00
2022-09-12T01:18:46.903Z,98001.00
2022-09-12T01:18:56.934Z,97999.00
2022-09-12T01:19:06.938Z,98001.00
2022-09-12T01:19:16.931Z,98001.00
2022-09-12T01:19:26.933Z,97999.00
2022-09-12T01:19:37.050Z,98003.00
2022-09-12T01:19:47.166Z,97994.00
2022-09-12T01:19:57.291Z,97999.00
2022-09-12T01:20:07.291Z,97999.00
2022-09-12T01:20:17.410Z,97994.00
2022-09-12T01:20:27.405Z,97999.00
2022-09-12T01:20:37.525Z,97994.00
2022-09-12T01:20:47.646Z,97999.00
2022-09-12T01:20:57.641Z,97994.00
2022-09-12T01:21:07.771Z,97995.00
2022-09-12T01:21:17.894Z,97994.00
2022-09-12T01:21:28.010Z,97994.00
2022-09-12T01:21:38.140Z,97999.00
2022-09-12T01:21:48.133Z,97995.00
2022-09-12T01:21:58.248Z,97994.00
2022-09-12T01:22:08.375Z,97995.00
2022-09-12T01:22:18.389Z,97995.00
2022-09-12T01:22:28.379Z,97994.00
2022-09-12T01:22:38.378Z,97995.00
2022-09-12T01:22:48.502Z,97995.00
2022-09-12T01:22:58.621Z,97994.00
2022-09-12T01:23:08.763Z,97992.00
2022-09-12T01:23:18.744Z,97995.00
2022-09-12T01:23:28.860Z,97992.00
2022-09-12T01:23:38.980Z,97995.00
2022-09-12T01:23:48.989Z,97994.00
2022-09-12T01:23:59.102Z,97994.00
2022-09-12T01:24:09.231Z,97994.00
2022-09-12T01:24:19.235Z,97994.00
2022-09-12T01:24:29.353Z,97994.00
2022-09-12T01:24:39.477Z,97995.00
2022-09-12T01:24:49.472Z,97994.00
2022-09-12T01:24:59.587Z,97992.00
2022-09-12T01:25:09.704Z,97994.00
2022-09-12T01:25:19.834Z,97992.00
2022-09-12T01:25:29.951Z,97994.00
2022-09-12T01:25:40.066Z,97994.00
2022-09-12T01:25:50.197Z,97992.00
2022-09-12T01:26:00.305Z,97994.00
2022-09-12T01:26:10.420Z,97995.00
2022-09-12T01:26:20.542Z,97994.00
2022-09-12T01:26:30.658Z,97994.00
2022-09-12T01:26:40.774Z,97994.00
2022-09-12T01:26:50.896Z,97995.00
2022-09-12T01:27:01.018Z,97994.00
2022-09-12T01:27:11.137Z,97994.00
2022-09-12T01:27:21.282Z,97994.00
2022-09-12T01:27:31.275Z,97992.00
2022-09-12T01:27:41.388Z,97994.00
2022-09-12T01:27:51.644Z,97994.00
2022-09-12T01:28:01.645Z,97992.00
2022-09-12T01:28:11.763Z,97994.00
2022-09-12T01:28:22.021Z,97992.00
2022-09-12T01:28:32.140Z,97992.00
2022-09-12T01:28:42.236Z,97992.00
2022-09-12T01:28:52.380Z,97994.00
2022-09-12T01:29:02.496Z,97995.00
2022-09-12T01:29:12.618Z,97995.00
2022-09-12T01:29:22.739Z,97995.00
2022-09-12T01:29:32.859Z,97995.00
2022-09-12T01:29:42.991Z,97995.00
2022-09-12T01:29:53.117Z,97995.00
2022-09-12T01:30:03.259Z,97995.00
2022-09-12T01:30:13.349Z,97995.00
2022-09-12T01:30:23.474Z,97995.00
2022-09-12T01:30:33.604Z,97995.00
2022-09-12T01:30:43.591Z,97995.00
2022-09-12T01:30:53.848Z,97995.00
2022-09-12T01:31:03.961Z,97995.00
2022-09-12T01:31:14.079Z,97995.00
2022-09-12T01:31:24.200Z,97992.00
2022-09-12T01:31:34.321Z,97994.00
2022-09-12T01:31:44.317Z,97995.00
2022-09-12T01:31:54.606Z,97995.00
2022-09-12T01:32:04.636Z,97995.00
2022-09-12T01:32:14.638Z,97995.00
2022-09-12T01:32:24.682Z,97994.00
2022-09-12T01:32:34.679Z,97995.00
2022-09-12T01:32:44.795Z,97995.00
2022-09-12T01:32:54.917Z,97994.00
2022-09-12T01:33:04.920Z,97994.00
2022-09-12T01:33:15.036Z,97994.00
2022-09-12T01:33:25.157Z,97994.00
2022-09-12T01:33:35.163Z,97995.00
2022-09-12T01:33:45.281Z,97994.00
2022-09-12T01:33:55.400Z,97994.00
2022-09-12T01:34:05.404Z,97992.00
2022-09-12T01:34:15.525Z,97994.00
2022-09-12T01:34:25.643Z,97994.00
2022-09-12T01:34:35.766Z,97992.00
2022-09-12T01:34:45.887Z,97992.00
2022-09-12T01:34:56.003Z,97992.00
2022-09-12T01:35:06.123Z,97992.00
2022-09-12T01:35:16.241Z,97992.00
2022-09-12T01:35:26.356Z,97992.00
2022-09-12T01:35:36.490Z,97994.00
2022-09-12T01:35:46.477Z,97990.00
2022-09-12T01:35:56.480Z,97992.00
2022-09-12T01:36:06.483Z,97990.00
2022-09-12T01:36:16.613Z,97988.00
2022-09-12T01:36:26.619Z,97990.00
2022-09-12T01:36:36.728Z,97990.00
2022-09-12T01:36:46.851Z,97990.00
2022-09-12T01:36:56.968Z,97986.00
2022-09-12T01:37:06.966Z,97986.00
2022-09-12T01:37:17.089Z,97986.00
2022-09-12T01:37:27.204Z,97984.00
2022-09-12T01:37:37.325Z,97990.00
2022-09-12T01:37:47.320Z,97984.00
2022-09-12T01:37:57.438Z,97984.00
2022-09-12T01:38:07.554Z,97984.00
2022-09-12T01:38:17.677Z,97984.00
2022-09-12T01:38:27.795Z,97984.00
2022-09-12T01:38:37.914Z,97984.00
2022-09-12T01:38:47.913Z,97986.00
2022-09-12T01:38:58.032Z,97984.00
2022-09-12T01:39:08.151Z,97984.00
2022-09-12T01:39:18.271Z,97982.00
2022-09-12T01:39:28.390Z,97984.00
2022-09-12T01:39:38.563Z,97984.00
2022-09-12T01:39:48.805Z,97982.00
2022-09-12T01:39:58.829Z,97986.00
2022-09-12T01:40:08.886Z,97984.00
2022-09-12T01:40:18.916Z,97984.00
2022-09-12T01:40:28.922Z,97982.00
2022-09-12T01:40:38.923Z,97982.00
2022-09-12T01:40:49.037Z,97984.00
2022-09-12T01:40:59.159Z,97984.00
2022-09-12T01:41:09.276Z,97982.00
2022-09-12T01:41:19.410Z,97980.00
2022-09-12T01:41:29.417Z,97984.00
2022-09-12T01:41:39.534Z,97980.00
2022-09-12T01:41:49.649Z,97984.00
2022-09-12T01:41:59.772Z,97972.00
2022-09-12T01:42:09.891Z,97980.00
2022-09-12T01:42:20.014Z,97980.00
2022-09-12T01:42:30.017Z,97972.00
2022-09-12T01:42:40.133Z,97980.00
2022-09-12T01:42:50.255Z,97972.00
2022-09-12T01:43:00.377Z,97980.00
2022-09-12T01:43:10.375Z,97972.00
2022-09-12T01:43:20.492Z,97972.00
2022-09-12T01:43:30.740Z,97980.00
2022-09-12T01:43:40.862Z,97980.00
2022-09-12T01:43:50.979Z,97980.00
2022-09-12T01:44:01.104Z,97980.00
2022-09-12T01:44:11.103Z,97972.00
2022-09-12T01:44:21.223Z,97972.00
2022-09-12T01:44:31.472Z,97970.00
2022-09-12T01:44:41.589Z,97970.00
2022-09-12T01:44:51.592Z,97972.00
2022-09-12T01:45:01.843Z,97970.00
2022-09-12T01:45:11.986Z,97970.00
2022-09-12T01:45:22.078Z,97972.00
2022-09-12T01:45:32.246Z,97972.00
2022-09-12T01:45:42.301Z,97972.00
2022-09-12T01:45:52.345Z,97970.00
2022-09-12T01:46:02.345Z,97980.00
2022-09-12T01:46:12.385Z,97970.00
2022-09-12T01:46:22.384Z,97968.00
2022-09-12T01:46:32.505Z,97970.00
2022-09-12T01:46:42.618Z,97970.00
2022-09-12T01:46:52.742Z,97970.00
2022-09-12T01:47:02.735Z,97972.00
2022-09-12T01:47:12.856Z,97970.00
2022-09-12T01:47:22.975Z,97970.00
2022-09-12T01:47:32.972Z,97970.00
2022-09-12T01:47:43.115Z,97970.00
2022-09-12T01:47:53.109Z,97970.00
2022-09-12T01:48:03.227Z,97970.00
2022-09-12T01:48:13.473Z,97970.00
2022-09-12T01:48:23.592Z,97970.00
2022-09-12T01:48:33.710Z,97970.00
2022-09-12T01:48:43.913Z,97968.00
2022-09-12T01:48:53.930Z,97972.00
2022-09-12T01:49:04.048Z,97972.00
2022-09-12T01:49:14.172Z,97970.00
2022-09-12T01:49:24.297Z,97970.00
2022-09-12T01:49:34.417Z,97970.00
2022-09-12T01:49:44.541Z,97972.00
2022-09-12T01:49:54.655Z,97970.00
2022-09-12T01:50:04.771Z,97970.00
2022-09-12T01:50:14.901Z,97972.00
2022-09-12T01:50:25.028Z,97968.00
2022-09-12T01:50:35.137Z,97972.00
2022-09-12T01:50:45.274Z,97970.00
2022-09-12T01:50:55.271Z,97968.00
2022-09-12T01:51:05.385Z,97970.00
2022-09-12T01:51:15.633Z,97972.00
2022-09-12T01:51:25.763Z,97970.00
2022-09-12T01:51:35.758Z,97970.00
2022-09-12T01:51:46.017Z,97970.00
2022-09-12T01:51:56.018Z,97970.00
2022-09-12T01:52:06.136Z,97972.00
2022-09-12T01:52:16.383Z,97980.00
2022-09-12T01:52:26.500Z,97980.00
2022-09-12T01:52:36.505Z,97970.00
2022-09-12T01:52:46.753Z,97972.00
2022-09-12T01:52:56.869Z,97972.00
2022-09-12T01:53:06.988Z,97972.00
2022-09-12T01:53:17.127Z,97972.00
2022-09-12T01:53:27.121Z,97972.00
2022-09-12T01:53:37.235Z,97980.00
2022-09-12T01:53:47.490Z,97980.00
2022-09-12T01:53:57.600Z,97980.00
2022-09-12T01:54:07.721Z,97972.00
2022-09-12T01:54:17.841Z,97980.00
2022-09-12T01:54:27.959Z,97980.00
2022-09-12T01:54:38.076Z,97972.00
2022-09-12T01:54:48.198Z,97972.00
2022-09-12T01:54:58.326Z,97972.00
2022-09-12T01:55:09.825Z,97980.00
2022-09-12T01:55:18.321Z,97972.00
2022-09-12T01:55:28.695Z,97972.00
2022-09-12T01:55:38.814Z,97980.00
2022-09-12T01:55:48.945Z,97970.00
2022-09-12T01:55:59.074Z,97972.00
2022-09-12T01:56:09.193Z,97972.00
2022-09-12T01:56:19.317Z,97972.00
2022-09-12T01:56:29.440Z,97972.00
2022-09-12T01:56:39.555Z,97980.00
2022-09-12T01:56:49.557Z,97972.00
2022-09-12T01:56:59.802Z,97970.00
2022-09-12T01:57:09.920Z,97972.00
2022-09-12T01:57:19.925Z,97980.00
2022-09-12T01:57:30.187Z,97972.00
2022-09-12T01:57:40.294Z,97972.00
2022-09-12T01:57:50.413Z,97972.00
2022-09-12T01:58:00.543Z,97972.00
2022-09-12T01:58:10.662Z,97972.00
2022-09-12T01:58:20.666Z,97980.00
2022-09-12T01:58:30.913Z,97972.00
2022-09-12T01:58:41.149Z,97972.00